createdAt,value
2019-03-28T00:00:48.530Z,0.72
2019-03-28T00:03:18.149Z,0.62
2019-03-28T00:05:47.880Z,0.46
2019-03-28T00:08:17.405Z,0.29
2019-03-28T00:10:48.574Z,0.20
2019-03-28T00:13:18.200Z,0.22
2019-03-28T00:15:47.930Z,0.11
2019-03-28T00:18:17.661Z,0.17
2019-03-28T00:20:47.428Z,0.17
2019-03-28T00:23:21.215Z,0.12
2019-03-28T00:25:50.763Z,0.40
2019-03-28T00:28:20.260Z,0.40
2019-03-28T00:30:49.863Z,0.36
2019-03-28T00:33:19.384Z,0.31
2019-03-28T00:35:48.928Z,0.29
2019-03-28T00:38:18.536Z,0.28
2019-03-28T00:40:48.153Z,0.30
2019-03-28T00:43:17.922Z,0.30
2019-03-28T00:45:47.648Z,0.31
2019-03-28T00:48:17.281Z,0.54
2019-03-28T00:50:46.918Z,0.41
2019-03-28T00:53:16.639Z,0.32
2019-03-28T00:55:46.183Z,0.46
2019-03-28T00:58:15.797Z,0.24
2019-03-28T01:00:45.529Z,0.18
2019-03-28T01:03:15.158Z,0.07
2019-03-28T01:05:44.780Z,-0.01
2019-03-28T01:08:14.510Z,0.19
2019-03-28T01:10:44.243Z,0.30
2019-03-28T01:13:13.867Z,0.24
2019-03-28T01:15:43.516Z,0.11
2019-03-28T01:18:12.997Z,0.10
2019-03-28T01:20:42.748Z,0.06
2019-03-28T01:23:12.478Z,0.04
2019-03-28T01:25:42.105Z,0.06
2019-03-28T01:28:11.838Z,0.12
2019-03-28T01:30:41.565Z,0.20
2019-03-28T01:33:11.095Z,0.26
2019-03-28T01:35:40.819Z,0.30
2019-03-28T01:38:10.452Z,0.30
2019-03-28T01:40:40.182Z,0.47
2019-03-28T01:43:09.921Z,0.55
2019-03-28T01:45:39.646Z,0.50
2019-03-28T01:48:09.381Z,0.40
2019-03-28T01:50:39.018Z,0.36
2019-03-28T01:53:08.633Z,0.36
2019-03-28T01:55:38.262Z,0.18
2019-03-28T01:58:07.888Z,0.21
2019-03-28T02:00:37.438Z,0.27
2019-03-28T02:03:08.777Z,0.28
2019-03-28T02:05:38.513Z,0.38
2019-03-28T02:08:08.132Z,0.60
2019-03-28T02:10:37.864Z,0.71
2019-03-28T02:13:07.593Z,0.70
2019-03-28T02:15:37.338Z,0.73
2019-03-28T02:18:07.159Z,0.78
2019-03-28T02:20:36.786Z,0.78
2019-03-28T02:23:06.530Z,0.72
2019-03-28T02:25:36.255Z,0.76
2019-03-28T02:28:05.970Z,0.69
2019-03-28T02:30:35.614Z,0.67
2019-03-28T02:33:05.330Z,0.58
2019-03-28T02:35:34.944Z,0.50
2019-03-28T02:38:04.597Z,0.45
2019-03-28T02:40:34.327Z,0.46
2019-03-28T02:43:04.071Z,0.39
2019-03-28T02:45:33.675Z,0.41
2019-03-28T02:48:03.308Z,0.34
2019-03-28T02:50:33.048Z,0.29
2019-03-28T02:53:02.775Z,0.40
2019-03-28T02:55:32.392Z,0.36
2019-03-28T02:58:02.335Z,0.36
2019-03-28T03:00:32.064Z,0.45
2019-03-28T03:03:01.809Z,0.56
2019-03-28T03:05:31.541Z,0.48
2019-03-28T03:08:01.048Z,0.45
2019-03-28T03:10:30.675Z,0.39
2019-03-28T03:13:00.304Z,0.44
2019-03-28T03:15:30.304Z,0.54
2019-03-28T03:18:00.243Z,0.52
2019-03-28T03:20:29.906Z,0.50
2019-03-28T03:22:59.533Z,0.43
2019-03-28T03:25:29.174Z,0.43
2019-03-28T03:27:59.439Z,0.45
2019-03-28T03:30:29.846Z,0.46
2019-03-28T03:32:59.212Z,0.44
2019-03-28T03:35:28.885Z,0.47
2019-03-28T03:37:58.628Z,0.51
2019-03-28T03:40:28.234Z,0.63
2019-03-28T03:42:57.839Z,0.84
2019-03-28T03:45:27.616Z,0.98
2019-03-28T03:47:57.342Z,1.08
2019-03-28T03:50:30.011Z,1.10
2019-03-28T03:52:59.675Z,1.16
2019-03-28T03:55:29.196Z,1.29
2019-03-28T03:58:14.459Z,1.42
2019-03-28T04:00:33.662Z,1.39
2019-03-28T04:03:03.421Z,1.54
2019-03-28T04:05:33.126Z,1.58
2019-03-28T04:08:02.758Z,1.75
2019-03-28T04:10:32.384Z,1.85
2019-03-28T04:13:01.914Z,1.93
2019-03-28T04:15:31.754Z,2.05
2019-03-28T04:18:01.380Z,2.25
2019-03-28T04:20:30.899Z,2.52
2019-03-28T04:23:00.637Z,2.40
2019-03-28T04:25:30.173Z,2.56
2019-03-28T04:27:59.876Z,2.61
2019-03-28T04:30:29.608Z,2.71
2019-03-28T04:32:59.240Z,2.49
2019-03-28T04:35:28.985Z,2.57
2019-03-28T04:37:58.778Z,2.64
2019-03-28T04:40:28.629Z,2.76
2019-03-28T04:42:58.260Z,2.70
2019-03-28T04:45:27.898Z,2.66
2019-03-28T04:47:57.521Z,3.08
2019-03-28T04:50:27.093Z,3.08
2019-03-28T04:52:56.772Z,2.99
2019-03-28T04:55:26.512Z,3.20
2019-03-28T04:57:56.129Z,2.84
2019-03-28T05:00:27.492Z,3.25
2019-03-28T05:02:57.850Z,3.14
2019-03-28T05:05:27.573Z,2.95
2019-03-28T05:07:57.202Z,3.28
2019-03-28T05:10:26.742Z,3.25
2019-03-28T05:12:56.453Z,3.21
2019-03-28T05:15:26.081Z,3.27
2019-03-28T05:17:55.809Z,3.20
2019-03-28T05:20:25.442Z,3.51
2019-03-28T05:22:55.063Z,3.82
2019-03-28T05:25:24.799Z,4.22
2019-03-28T05:27:54.440Z,4.52
2019-03-28T05:30:24.050Z,4.33
2019-03-28T05:32:53.686Z,4.19
2019-03-28T05:35:23.203Z,4.53
2019-03-28T05:37:52.830Z,4.61
2019-03-28T05:40:22.950Z,4.35
2019-03-28T05:42:53.933Z,4.35
2019-03-28T05:45:23.577Z,4.76
2019-03-28T05:47:53.189Z,5.18
2019-03-28T05:50:22.817Z,5.66
2019-03-28T05:52:52.547Z,6.15
2019-03-28T05:55:22.271Z,5.83
2019-03-28T05:57:51.945Z,5.71
2019-03-28T06:00:21.534Z,5.09
2019-03-28T06:02:51.267Z,5.02
2019-03-28T06:05:20.997Z,4.76
2019-03-28T06:07:52.173Z,4.20
2019-03-28T06:10:21.915Z,4.04
2019-03-28T06:12:51.626Z,4.03
2019-03-28T06:15:21.347Z,3.78
2019-03-28T06:17:50.875Z,3.90
2019-03-28T06:20:20.600Z,3.90
2019-03-28T06:22:50.327Z,3.79
2019-03-28T06:25:20.180Z,4.14
2019-03-28T06:27:50.102Z,4.18
2019-03-28T06:30:19.823Z,4.47
2019-03-28T06:32:49.562Z,3.99
2019-03-28T06:35:21.824Z,4.07
2019-03-28T06:37:51.599Z,4.49
2019-03-28T06:40:21.368Z,4.70
2019-03-28T06:42:51.130Z,4.65
2019-03-28T06:45:20.761Z,5.38
2019-03-28T06:47:50.389Z,5.63
2019-03-28T06:50:20.017Z,5.52
2019-03-28T06:52:49.699Z,5.76
2019-03-28T06:55:19.376Z,5.57
2019-03-28T06:57:49.005Z,6.44
2019-03-28T07:00:18.547Z,7.59
2019-03-28T07:02:48.166Z,7.88
2019-03-28T07:05:17.789Z,8.61
2019-03-28T07:07:47.534Z,7.96
2019-03-28T07:10:17.084Z,8.38
2019-03-28T07:12:46.786Z,8.17
2019-03-28T07:15:16.401Z,8.31
2019-03-28T07:17:46.022Z,8.55
2019-03-28T07:20:15.550Z,7.56
2019-03-28T07:22:46.100Z,7.72
2019-03-28T07:25:16.851Z,7.68
2019-03-28T07:27:46.352Z,8.19
2019-03-28T07:30:17.755Z,9.45
2019-03-28T07:32:47.272Z,9.84
2019-03-28T07:35:17.006Z,10.00
2019-03-28T07:37:46.629Z,9.66
2019-03-28T07:40:16.250Z,9.40
2019-03-28T07:42:45.884Z,8.92
2019-03-28T07:45:15.511Z,8.14
2019-03-28T07:47:45.137Z,8.03
2019-03-28T07:50:16.518Z,8.27
2019-03-28T07:52:46.139Z,7.77
2019-03-28T07:55:16.595Z,6.97
2019-03-28T07:57:46.748Z,6.63
2019-03-28T08:00:16.349Z,6.51
2019-03-28T08:02:45.981Z,6.04
2019-03-28T08:05:15.612Z,6.60
2019-03-28T08:07:46.448Z,6.11
2019-03-28T08:10:16.711Z,6.01
2019-03-28T08:12:46.430Z,5.82
2019-03-28T08:15:16.258Z,4.74
2019-03-28T08:17:45.895Z,4.74
2019-03-28T08:20:15.625Z,5.04
2019-03-28T08:22:45.249Z,5.06
2019-03-28T08:25:14.986Z,5.47
2019-03-28T08:27:44.618Z,5.94
2019-03-28T08:30:18.579Z,6.15
2019-03-28T08:32:45.705Z,6.80
2019-03-28T08:35:15.233Z,7.71
2019-03-28T08:37:45.176Z,7.67
2019-03-28T08:40:17.967Z,8.30
2019-03-28T08:42:47.729Z,10.18
2019-03-28T08:45:17.525Z,11.76
2019-03-28T08:47:47.120Z,12.18
2019-03-28T08:50:16.886Z,12.04
2019-03-28T08:52:46.725Z,12.09
2019-03-28T08:55:16.461Z,11.99
2019-03-28T08:57:46.143Z,11.58
2019-03-28T09:00:16.781Z,10.78
2019-03-28T09:02:47.077Z,11.29
2019-03-28T09:05:16.698Z,11.25
2019-03-28T09:07:46.325Z,10.91
2019-03-28T09:10:15.950Z,10.36
2019-03-28T09:12:45.863Z,10.99
2019-03-28T09:15:15.672Z,11.06
2019-03-28T09:17:45.352Z,10.90
2019-03-28T09:20:14.979Z,10.90
2019-03-28T09:22:45.729Z,10.16
2019-03-28T09:25:15.565Z,9.03
2019-03-28T09:27:45.198Z,9.49
2019-03-28T09:30:14.814Z,10.07
2019-03-28T09:32:44.559Z,9.56
2019-03-28T09:35:20.004Z,9.54
2019-03-28T09:37:49.639Z,10.09
2019-03-28T09:40:19.212Z,10.34
2019-03-28T09:42:48.897Z,9.94
2019-03-28T09:45:18.628Z,9.80
2019-03-28T09:47:48.244Z,9.64
2019-03-28T09:50:18.088Z,8.70
2019-03-28T09:52:47.710Z,8.52
2019-03-28T09:55:19.039Z,8.79
2019-03-28T09:57:48.708Z,8.03
2019-03-28T10:00:18.547Z,7.51
2019-03-28T10:02:48.061Z,7.49
2019-03-28T10:05:17.682Z,8.25
2019-03-28T10:07:47.379Z,8.83
2019-03-28T10:10:17.053Z,8.53
2019-03-28T10:12:46.785Z,11.06
2019-03-28T10:15:16.205Z,11.82
2019-03-28T10:17:45.827Z,14.28
2019-03-28T10:20:15.567Z,18.09
2019-03-28T10:22:45.191Z,15.76
2019-03-28T10:25:14.832Z,16.67
2019-03-28T10:27:44.553Z,19.12
2019-03-28T10:30:14.276Z,18.79
2019-03-28T10:32:44.011Z,16.57
2019-03-28T10:35:16.923Z,16.87
2019-03-28T10:37:46.533Z,17.38
2019-03-28T10:40:16.273Z,18.01
2019-03-28T10:42:45.894Z,21.40
2019-03-28T10:45:15.533Z,23.16
2019-03-28T10:47:45.351Z,20.51
2019-03-28T10:50:14.987Z,20.32
2019-03-28T10:52:44.611Z,23.12
2019-03-28T10:55:14.139Z,26.17
2019-03-28T10:57:43.781Z,29.40
2019-03-28T11:00:23.547Z,27.50
2019-03-28T11:02:44.845Z,25.70
2019-03-28T11:05:14.812Z,24.05
2019-03-28T11:07:46.074Z,22.79
2019-03-28T11:10:15.599Z,26.71
2019-03-28T11:12:45.226Z,27.60
2019-03-28T11:15:14.845Z,31.53
2019-03-28T11:17:44.369Z,32.84
2019-03-28T11:20:14.093Z,35.05
2019-03-28T11:22:43.851Z,34.35
2019-03-28T11:25:13.563Z,30.95
2019-03-28T11:27:43.207Z,29.04
2019-03-28T11:30:13.018Z,29.11
2019-03-28T11:32:42.642Z,31.63
2019-03-28T11:35:12.378Z,27.22
2019-03-28T11:37:42.107Z,26.55
2019-03-28T11:40:12.837Z,28.36
2019-03-28T11:42:43.006Z,28.48
2019-03-28T11:45:12.726Z,27.17
2019-03-28T11:47:42.461Z,27.50
2019-03-28T11:50:12.217Z,23.57
2019-03-28T11:52:42.794Z,21.92
2019-03-28T11:55:12.671Z,21.73
2019-03-28T11:57:42.315Z,20.97
2019-03-28T12:00:14.282Z,19.54
2019-03-28T12:02:44.004Z,20.93
2019-03-28T12:05:13.744Z,27.10
2019-03-28T12:07:43.471Z,31.20
2019-03-28T12:10:13.209Z,28.40
2019-03-28T12:12:42.961Z,32.49
2019-03-28T12:15:13.277Z,33.86
2019-03-28T12:17:42.342Z,33.31
2019-03-28T12:20:11.811Z,34.91
2019-03-28T12:22:41.549Z,37.22
2019-03-28T12:25:11.246Z,38.56
2019-03-28T12:27:40.898Z,34.40
2019-03-28T12:30:15.611Z,35.89
2019-03-28T12:32:43.639Z,35.28
2019-03-28T12:35:13.237Z,37.53
2019-03-28T12:37:42.885Z,34.97
2019-03-28T12:40:12.892Z,34.24
2019-03-28T12:42:42.552Z,31.48
2019-03-28T12:45:12.403Z,34.16
2019-03-28T12:47:43.159Z,26.30
2019-03-28T12:50:14.000Z,29.20
2019-03-28T12:52:45.001Z,33.44
2019-03-28T12:55:15.399Z,30.47
2019-03-28T12:57:48.119Z,27.60
2019-03-28T13:00:16.500Z,31.56
2019-03-28T13:02:47.248Z,30.62
2019-03-28T13:05:16.979Z,30.09
2019-03-28T13:07:46.709Z,24.97
2019-03-28T13:10:16.337Z,22.60
2019-03-28T13:12:45.869Z,22.30
2019-03-28T13:15:15.581Z,21.73
2019-03-28T13:17:45.219Z,18.86
2019-03-28T13:20:14.951Z,15.99
2019-03-28T13:22:44.683Z,14.17
2019-03-28T13:25:14.515Z,12.98
2019-03-28T13:27:44.347Z,12.54
2019-03-28T13:30:14.314Z,12.13
2019-03-28T13:32:44.009Z,11.59
2019-03-28T13:35:13.646Z,10.92
2019-03-28T13:37:43.346Z,10.04
2019-03-28T13:40:13.202Z,9.53
2019-03-28T13:42:42.930Z,8.93
2019-03-28T13:45:12.564Z,8.81
2019-03-28T13:47:42.283Z,7.98
2019-03-28T13:50:12.361Z,7.93
2019-03-28T13:52:42.062Z,8.03
2019-03-28T13:55:11.945Z,8.53
2019-03-28T13:57:43.459Z,8.57
2019-03-28T14:00:13.091Z,8.75
2019-03-28T14:02:54.897Z,8.42
2019-03-28T14:05:14.088Z,7.52
2019-03-28T14:07:43.815Z,7.04
2019-03-28T14:10:13.346Z,6.80
2019-03-28T14:12:42.868Z,6.66
2019-03-28T14:15:12.611Z,6.14
2019-03-28T14:17:42.315Z,6.03
2019-03-28T14:20:12.048Z,5.69
2019-03-28T14:22:42.298Z,5.57
2019-03-28T14:25:11.920Z,5.27
2019-03-28T14:27:41.759Z,5.25
2019-03-28T14:30:11.879Z,5.11
2019-03-28T14:32:52.592Z,5.14
2019-03-28T14:35:13.000Z,5.02
2019-03-28T14:37:42.832Z,4.85
2019-03-28T14:40:12.563Z,4.60
2019-03-28T14:42:42.284Z,4.62
2019-03-28T14:45:12.030Z,4.37
2019-03-28T14:47:41.748Z,3.96
2019-03-28T14:50:11.681Z,3.71
2019-03-28T14:52:41.316Z,3.71
2019-03-28T14:55:11.139Z,3.93
2019-03-28T14:57:41.183Z,4.02
2019-03-28T15:00:13.979Z,4.37
2019-03-28T15:02:43.799Z,4.98
2019-03-28T15:05:13.533Z,5.42
2019-03-28T15:07:43.058Z,6.19
2019-03-28T15:10:13.914Z,6.75
2019-03-28T15:12:43.747Z,6.66
2019-03-28T15:15:13.373Z,7.43
2019-03-28T15:17:44.976Z,7.51
2019-03-28T15:20:14.262Z,7.12
2019-03-28T15:22:44.006Z,6.73
2019-03-28T15:25:13.624Z,7.19
2019-03-28T15:27:43.671Z,7.21
2019-03-28T15:30:13.288Z,7.32
2019-03-28T15:32:42.913Z,7.13
2019-03-28T15:35:12.639Z,6.80
2019-03-28T15:37:42.379Z,6.76
2019-03-28T15:40:12.106Z,6.96
2019-03-28T15:42:41.946Z,6.88
2019-03-28T15:45:11.561Z,6.62
2019-03-28T15:47:41.435Z,6.20
2019-03-28T15:50:11.126Z,5.63
2019-03-28T15:52:41.988Z,5.31
2019-03-28T15:55:14.556Z,5.04
2019-03-28T15:57:43.185Z,4.78
2019-03-28T16:00:12.825Z,4.61
2019-03-28T16:02:42.411Z,4.44
2019-03-28T16:05:12.064Z,4.26
2019-03-28T16:07:41.807Z,4.02
2019-03-28T16:10:14.553Z,3.91
2019-03-28T16:12:42.890Z,3.76
2019-03-28T16:15:12.428Z,3.67
2019-03-28T16:17:42.150Z,3.57
2019-03-28T16:20:11.768Z,3.47
2019-03-28T16:22:41.355Z,3.45
2019-03-28T16:25:12.048Z,3.39
2019-03-28T16:27:41.787Z,3.30
2019-03-28T16:30:12.531Z,3.12
2019-03-28T16:32:42.376Z,3.00
2019-03-28T16:35:11.993Z,2.81
2019-03-28T16:37:41.521Z,2.71
2019-03-28T16:40:11.365Z,2.55
2019-03-28T16:42:41.737Z,2.62
2019-03-28T16:45:10.949Z,2.60
2019-03-28T16:47:40.643Z,2.53
2019-03-28T16:50:12.018Z,2.47
2019-03-28T16:52:41.777Z,2.24
2019-03-28T16:55:11.378Z,2.09
2019-03-28T16:57:41.113Z,1.97
2019-03-28T17:00:14.105Z,1.87
2019-03-28T17:02:43.820Z,1.73
2019-03-28T17:05:13.572Z,1.55
2019-03-28T17:07:43.974Z,1.54
2019-03-28T17:10:16.945Z,1.49
2019-03-28T17:12:46.730Z,1.37
2019-03-28T17:15:16.292Z,1.47
2019-03-28T17:17:45.905Z,1.60
2019-03-28T17:20:15.519Z,1.61
2019-03-28T17:22:45.168Z,1.74
2019-03-28T17:25:14.795Z,1.98
2019-03-28T17:27:46.566Z,1.97
2019-03-28T17:30:16.082Z,1.78
2019-03-28T17:32:45.816Z,1.57
2019-03-28T17:35:15.552Z,1.78
2019-03-28T17:37:45.277Z,1.62
2019-03-28T17:40:14.900Z,1.66
2019-03-28T17:42:47.735Z,2.00
2019-03-28T17:45:15.896Z,1.98
2019-03-28T17:47:45.529Z,2.13
2019-03-28T17:50:15.004Z,2.12
2019-03-28T17:52:45.808Z,1.93
2019-03-28T17:55:15.558Z,1.72
2019-03-28T17:57:45.378Z,1.66
2019-03-28T18:00:15.093Z,1.61
2019-03-28T18:02:44.819Z,1.65
2019-03-28T18:05:15.974Z,2.01
2019-03-28T18:07:45.919Z,2.06
2019-03-28T18:10:15.546Z,1.88
2019-03-28T18:12:45.278Z,1.68
2019-03-28T18:15:15.048Z,1.66
2019-03-28T18:17:45.398Z,1.76
2019-03-28T18:20:15.592Z,1.78
2019-03-28T18:22:45.227Z,1.93
2019-03-28T18:25:16.097Z,1.93
2019-03-28T18:27:45.933Z,1.79
2019-03-28T18:30:16.175Z,1.62
2019-03-28T18:32:45.776Z,1.48
2019-03-28T18:35:15.393Z,1.40
2019-03-28T18:37:45.059Z,1.61
2019-03-28T18:40:14.675Z,1.47
2019-03-28T18:42:44.289Z,1.42
2019-03-28T18:45:13.916Z,1.48
2019-03-28T18:47:43.911Z,1.40
2019-03-28T18:50:13.686Z,1.33
2019-03-28T18:52:43.318Z,1.37
2019-03-28T18:55:12.941Z,1.28
2019-03-28T18:57:42.573Z,1.34
2019-03-28T19:00:12.206Z,1.59
2019-03-28T19:02:43.489Z,1.54
2019-03-28T19:05:19.741Z,1.60
2019-03-28T19:07:44.564Z,1.60
2019-03-28T19:10:14.901Z,1.71
2019-03-28T19:12:44.467Z,1.73
2019-03-28T19:15:14.053Z,1.60
2019-03-28T19:17:43.791Z,1.61
2019-03-28T19:20:15.053Z,1.40
2019-03-28T19:22:44.677Z,1.24
2019-03-28T19:25:14.309Z,1.36
2019-03-28T19:27:44.807Z,1.41
2019-03-28T19:30:14.679Z,1.31
2019-03-28T19:32:44.308Z,1.18
2019-03-28T19:35:13.997Z,1.12
2019-03-28T19:37:43.788Z,1.01
2019-03-28T19:40:13.566Z,0.98
2019-03-28T19:42:44.011Z,0.84
2019-03-28T19:45:17.059Z,0.91
2019-03-28T19:47:46.629Z,0.75
2019-03-28T19:50:19.479Z,1.02
2019-03-28T19:52:49.108Z,1.02
2019-03-28T19:55:22.016Z,1.01
2019-03-28T19:57:51.837Z,1.21
2019-03-28T20:00:21.429Z,1.37
2019-03-28T20:02:51.028Z,1.31
2019-03-28T20:05:20.725Z,1.19
2019-03-28T20:07:50.346Z,1.01
2019-03-28T20:10:19.999Z,0.65
2019-03-28T20:12:49.451Z,0.65
2019-03-28T20:15:19.140Z,0.75
2019-03-28T20:17:48.872Z,0.86
2019-03-28T20:20:18.403Z,0.79
2019-03-28T20:22:47.931Z,0.54
2019-03-28T20:25:17.461Z,0.42
2019-03-28T20:27:49.942Z,0.44
2019-03-28T20:30:19.763Z,0.52
2019-03-28T20:32:49.391Z,0.40
2019-03-28T20:35:19.074Z,0.33
2019-03-28T20:37:49.678Z,0.59
2019-03-28T20:40:19.407Z,0.68
2019-03-28T20:42:48.876Z,0.56
2019-03-28T20:45:18.861Z,0.98
2019-03-28T20:47:48.399Z,0.68
2019-03-28T20:50:18.025Z,0.59
2019-03-28T20:52:47.581Z,0.66
2019-03-28T20:55:17.238Z,0.63
2019-03-28T20:57:46.904Z,0.68
2019-03-28T21:00:18.126Z,0.77
2019-03-28T21:02:48.731Z,0.83
2019-03-28T21:05:18.641Z,0.95
2019-03-28T21:07:48.231Z,0.97
2019-03-28T21:10:24.706Z,0.81
2019-03-28T21:12:54.739Z,0.49
2019-03-28T21:15:24.299Z,0.37
2019-03-28T21:17:53.864Z,0.37
2019-03-28T21:20:23.463Z,0.17
2019-03-28T21:22:53.204Z,0.03
2019-03-28T21:25:22.910Z,0.04
2019-03-28T21:27:52.554Z,0.05
2019-03-28T21:30:22.023Z,-0.03
2019-03-28T21:32:55.546Z,-0.03
2019-03-28T21:35:23.085Z,0.18
2019-03-28T21:37:52.706Z,0.13
2019-03-28T21:43:00.065Z,0.78
2019-03-28T21:45:29.784Z,0.83
2019-03-28T21:47:59.505Z,0.61
2019-03-28T21:50:29.139Z,0.37
2019-03-28T21:52:58.881Z,0.11
2019-03-28T21:55:28.392Z,-0.11
2019-03-28T21:57:58.017Z,-0.10
2019-03-28T22:00:27.745Z,-0.16
2019-03-28T22:02:57.389Z,-0.28
2019-03-28T22:05:28.835Z,-0.28
2019-03-28T22:07:58.472Z,-0.11
2019-03-28T22:10:27.996Z,-0.07
2019-03-28T22:12:57.543Z,-0.15
2019-03-28T22:15:27.255Z,-0.19
2019-03-28T22:17:56.981Z,-0.35
2019-03-28T22:20:26.508Z,-0.44
2019-03-28T22:22:56.130Z,-0.50
2019-03-28T22:25:25.771Z,-0.49
2019-03-28T22:27:55.289Z,-0.33
2019-03-28T22:30:24.920Z,-0.16
2019-03-28T22:32:54.552Z,-0.42
2019-03-28T22:35:24.172Z,-0.51
2019-03-28T22:37:54.761Z,-0.48
2019-03-28T22:40:24.455Z,-0.72
2019-03-28T22:42:53.985Z,-0.91
2019-03-28T22:45:23.711Z,-1.04
2019-03-28T22:47:53.779Z,-1.02
2019-03-28T22:50:24.327Z,-0.92
2019-03-28T22:52:53.816Z,-0.85
2019-03-28T22:55:23.353Z,-0.82
2019-03-28T22:57:54.147Z,-0.78
2019-03-28T23:00:27.105Z,-0.76
2019-03-28T23:02:58.242Z,-0.74
2019-03-28T23:05:27.786Z,-0.70
2019-03-28T23:07:57.418Z,-0.74
2019-03-28T23:10:27.045Z,-0.79
2019-03-28T23:12:56.663Z,-0.89
2019-03-28T23:15:26.296Z,-0.96
2019-03-28T23:17:55.937Z,-1.00
2019-03-28T23:20:25.554Z,-1.06
2019-03-28T23:22:55.279Z,-1.32
2019-03-28T23:25:24.809Z,-1.48
2019-03-28T23:27:54.440Z,-1.38
2019-03-28T23:30:24.171Z,-1.44
2019-03-28T23:32:53.806Z,-1.52
2019-03-28T23:35:23.423Z,-1.60
2019-03-28T23:37:53.154Z,-1.64
2019-03-28T23:40:26.132Z,-1.63
2019-03-28T23:42:54.861Z,-1.69
2019-03-28T23:45:24.488Z,-1.58
2019-03-28T23:47:54.147Z,-1.54
2019-03-28T23:50:23.748Z,-1.62
2019-03-28T23:52:53.275Z,-1.56
2019-03-28T23:55:22.805Z,-1.54
2019-03-28T23:57:52.430Z,-1.58
